Jsp Bora — V2CQ4 — position and weather

sailwx.info

Track history (hours):
 
Tides and Currents Weather Stations Pressure Air Temp Water Temp Dewpoint Dewpoint Depression Visibility Wind Speed Wind Dir Waves Ship Positions

Jsp Bora

Last reported at 2017-Sep-22 01:58 UTC. Time now 2017-Sep-22 02:56 UTC.
Position N 39°25' W 009°50'.

Length 148 m; draft 6.6 m.

Type: Cargo ship. MMSI: 305079000.

Date/timePositionNaut miles runAvg speedWind from/ knotsBaromVisibWave heightAir tempDewpointWater temp
2017-Sep-22 01:58N 39°25' W 009°50'5 8.6
2017-Sep-22 01:26N 39°20' W 009°50'4 9.0
2017-Sep-22 01:00N 39°17' W 009°50'5 9.3
2017-Sep-22 00:31N 39°12' W 009°51'5 9.1
2017-Sep-22 00:00N 39°07' W 009°51'5 9.3
2017-Sep-21 23:31N 39°03' W 009°51'5 9.8
2017-Sep-21 23:00N 38°58' W 009°51'5 9.4
2017-Sep-21 22:30N 38°53' W 009°51'5 9.2
2017-Sep-21 22:00N 38°49' W 009°51'5 9.2
2017-Sep-21 21:31N 38°44' W 009°51'4 8.9
2017-Sep-21 21:01N 38°40' W 009°50'4 8.4
2017-Sep-21 20:30N 38°35' W 009°49'4 8.8
2017-Sep-21 20:01N 38°31' W 009°47'5 9.4
2017-Sep-21 19:30N 38°27' W 009°46'5 9.4
2017-Sep-21 19:01N 38°22' W 009°45'611.7
2017-Sep-21 18:30N 38°16' W 009°43'611.5
2017-Sep-21 18:01N 38°11' W 009°41'811.2
2017-Sep-21 17:18N 38°03' W 009°39'311.4
2017-Sep-21 17:00N 37°60' W 009°38'611.1
2017-Sep-21 16:30N 37°54' W 009°36'611.8
2017-Sep-21 16:00N 37°49' W 009°35'611.8
2017-Sep-21 15:30N 37°43' W 009°33'612.2
2017-Sep-21 15:00N 37°37' W 009°31'612.6
2017-Sep-21 14:30N 37°31' W 009°29'1412.5
2017-Sep-21 13:21N 37°17' W 009°25'712.6
2017-Sep-21 12:46N 37°09' W 009°23'312.5
2017-Sep-21 12:30N 37°06' W 009°22'812.6
2017-Sep-21 11:55N 36°59' W 009°20'512.6
2017-Sep-21 11:30N 36°54' W 009°18'1412.4
2017-Sep-21 10:24N 36°44' W 009°07'512.7
2017-Sep-21 09:59N 36°42' W 009°01'612.5
2017-Sep-21 09:30N 36°40' W 008°54'612.2
2017-Sep-21 09:00N 36°38' W 008°47'613.1
2017-Sep-21 08:30N 36°36' W 008°39'713.2
2017-Sep-21 08:00N 36°34' W 008°31'713.2
2017-Sep-21 07:30N 36°32' W 008°23'713.4
2017-Sep-21 07:00N 36°30' W 008°15'713.4
2017-Sep-21 06:29N 36°28' W 008°07'510.6
2017-Sep-21 06:00N 36°26' W 008°01'510.7
2017-Sep-21 05:30N 36°25' W 007°55'510.7
2017-Sep-21 05:00N 36°23' W 007°49'510.8
2017-Sep-21 04:30N 36°21' W 007°42'610.8
2017-Sep-21 03:59N 36°20' W 007°36'7111.0
2017-Sep-20 21:31N 35°58' W 006°12'012.0
2017-Sep-20 21:30N 35°58' W 006°12'2010.9
2017-Sep-20 19:41N 35°58' W 005°47'5 9.4
2017-Sep-20 19:09N 35°58' W 005°41'2 8.6
2017-Sep-20 18:58N 35°58' W 005°39'4 7.8
2017-Sep-20 18:28N 35°59' W 005°34'4 7.9
2017-Sep-20 18:01N 35°60' W 005°30'4 7.8
2017-Sep-20 17:30N 36°01' W 005°25'5 9.4
2017-Sep-20 17:01N 36°05' W 005°23'3 2.3
2017-Sep-20 15:43N 36°08' W 005°25'0 0.0
2017-Sep-20 15:22N 36°08' W 005°25'0 0.0
2017-Sep-20 13:56N 36°08' W 005°25'0 0.0
2017-Sep-20 13:19N 36°08' W 005°25'0 0.0
2017-Sep-20 05:35N 36°08' W 005°25'0 0.0
2017-Sep-20 05:29N 36°08' W 005°25'0 0.0
2017-Sep-20 04:56N 36°08' W 005°25'0 0.0
2017-Sep-20 04:29N 36°08' W 005°25'0 0.0
2017-Sep-20 03:56N 36°08' W 005°25'0 0.2
2017-Sep-20 03:29N 36°08' W 005°25'0 0.0
2017-Sep-20 02:59N 36°08' W 005°25'0 0.0
2017-Sep-20 02:29N 36°08' W 005°25'0 0.2
2017-Sep-20 01:59N 36°08' W 005°25'0 0.2
2017-Sep-20 01:26N 36°08' W 005°25'0 0.0
2017-Sep-20 00:59N 36°08' W 005°25'0 0.1
2017-Sep-20 00:29N 36°08' W 005°25'0 0.1
2017-Sep-19 23:59N 36°08' W 005°25'0 0.0
2017-Sep-19 23:29N 36°08' W 005°25'0 0.0
2017-Sep-19 22:56N 36°08' W 005°25'0 0.0
2017-Sep-19 22:29N 36°08' W 005°25'0 0.2
2017-Sep-19 21:56N 36°08' W 005°25'0 0.1
2017-Sep-19 19:59N 36°08' W 005°25'0 0.0
2017-Sep-19 19:11N 36°08' W 005°25'0 0.1
2017-Sep-19 18:59N 36°08' W 005°25'0 0.2
2017-Sep-19 18:29N 36°08' W 005°25'0 0.0
2017-Sep-19 17:59N 36°08' W 005°25'0 0.1
2017-Sep-19 17:30N 36°08' W 005°25'2 4.4
2017-Sep-19 17:00N 36°06' W 005°23'4 8.4
2017-Sep-19 16:30N 36°05' W 005°18'612.0
2017-Sep-19 16:00N 36°05' W 005°11'23113.0
2017-Sep-18 22:12N 37°07' W 000°33'415.0
2017-Sep-18 21:56N 37°09' W 000°28'615.0
2017-Sep-18 21:30N 37°12' W 000°21'715.0
2017-Sep-18 21:00N 37°15' W 000°13'714.8
2017-Sep-18 20:30N 37°19' W 000°05'714.6
2017-Sep-18 20:00N 37°22' E 000°03'714.6
2017-Sep-18 19:30N 37°26' E 000°11'714.6
2017-Sep-18 19:00N 37°29' E 000°20'714.4
2017-Sep-18 18:30N 37°32' E 000°28'714.2
2017-Sep-18 18:00N 37°36' E 000°36'814.2
2017-Sep-18 17:26N 37°40' E 000°45'614.3
2017-Sep-18 17:00N 37°43' E 000°52'714.5
2017-Sep-18 16:30N 37°46' E 000°60'914.8
2017-Sep-18 15:55N 37°50' E 001°09'8014.7
2017-Sep-18 10:29N 38°27' E 002°39'2114.6
2017-Sep-18 09:01N 38°37' E 003°03'414.6
2017-Sep-18 08:46N 38°38' E 003°07'514.7
2017-Sep-18 08:26N 38°41' E 003°13'614.7
2017-Sep-18 08:00N 38°44' E 003°20'714.6
2017-Sep-18 07:30N 38°47' E 003°29'714.6
2017-Sep-18 06:59N 38°51' E 003°37'35214.6
2017-Sep-17 06:58N 43°10' E 008°51'613.0
2017-Sep-17 06:30N 43°15' E 008°57'713.2
2017-Sep-17 06:00N 43°20' E 009°03'713.3
2017-Sep-17 05:30N 43°25' E 009°09'713.4
2017-Sep-17 05:00N 43°30' E 009°15'713.6
2017-Sep-17 04:30N 43°35' E 009°21'713.9
2017-Sep-17 04:00N 43°40' E 009°27'714.0
2017-Sep-17 03:30N 43°46' E 009°34'714.1
2017-Sep-17 03:00N 43°51' E 009°40'714.4
2017-Sep-17 02:30N 43°56' E 009°47'612.9
2017-Sep-17 02:01N 44°01' E 009°52'4 7.1
2017-Sep-17 01:30N 44°05' E 009°52'0 0.8
2017-Sep-17 01:00N 44°05' E 009°53'0 0.0
2017-Sep-17 00:27N 44°05' E 009°53'0 0.0
2017-Sep-16 23:57N 44°05' E 009°53'0 0.0
2017-Sep-16 23:27N 44°05' E 009°53'0 0.0
2017-Sep-16 22:57N 44°05' E 009°53'0 0.0
2017-Sep-16 22:27N 44°05' E 009°53'0 0.0
2017-Sep-16 21:57N 44°05' E 009°53'0 0.0
2017-Sep-16 21:27N 44°05' E 009°53'0 0.0
2017-Sep-16 20:57N 44°05' E 009°53'0 0.0
2017-Sep-16 20:27N 44°05' E 009°53'0 0.0
2017-Sep-16 19:57N 44°05' E 009°53'0 0.0
2017-Sep-16 19:27N 44°05' E 009°53'0 0.0
2017-Sep-16 18:57N 44°05' E 009°53'0 0.0
2017-Sep-16 18:27N 44°05' E 009°53'0 0.0
2017-Sep-16 17:57N 44°05' E 009°53'0 0.0
2017-Sep-16 17:27N 44°05' E 009°53'0 0.0
2017-Sep-16 16:57N 44°05' E 009°53'0 0.0
2017-Sep-16 16:27N 44°05' E 009°53'0 0.0
2017-Sep-16 15:57N 44°05' E 009°53'0 0.0
2017-Sep-16 15:27N 44°05' E 009°53'0 0.0
2017-Sep-16 14:57N 44°05' E 009°53'0 0.0
2017-Sep-16 14:27N 44°05' E 009°53'0 0.0
2017-Sep-16 13:57N 44°05' E 009°53'0 0.0
2017-Sep-16 13:27N 44°05' E 009°53'0 0.0
2017-Sep-16 12:57N 44°05' E 009°53'0 0.0
2017-Sep-16 12:27N 44°05' E 009°53'0 0.0
2017-Sep-16 11:57N 44°05' E 009°53'0 0.0
2017-Sep-16 11:27N 44°05' E 009°53'0 0.0
2017-Sep-16 10:57N 44°05' E 009°53'0 0.0
2017-Sep-16 10:27N 44°05' E 009°53'0 0.0
2017-Sep-16 09:57N 44°05' E 009°53'0 0.0
2017-Sep-16 09:27N 44°05' E 009°53'0 0.0
2017-Sep-16 08:57N 44°05' E 009°53'0 0.0
2017-Sep-16 08:27N 44°05' E 009°53'0 0.0
2017-Sep-16 07:57N 44°05' E 009°53'0 0.0
2017-Sep-16 07:27N 44°05' E 009°53'0 0.0
2017-Sep-16 06:57N 44°05' E 009°53'0 0.0
2017-Sep-16 06:27N 44°05' E 009°53'0 0.0
2017-Sep-16 05:57N 44°05' E 009°53'0 0.0
2017-Sep-16 05:27N 44°05' E 009°53'0 0.0
2017-Sep-16 04:57N 44°05' E 009°53'0 0.0
2017-Sep-16 04:27N 44°05' E 009°53'0 0.0
2017-Sep-16 03:51N 44°05' E 009°53'0 0.0
2017-Sep-16 03:27N 44°05' E 009°53'0 0.0
2017-Sep-16 02:57N 44°05' E 009°53'0 0.0
2017-Sep-16 02:27N 44°05' E 009°53'0 0.0
2017-Sep-16 01:57N 44°05' E 009°53'0 0.0
2017-Sep-16 01:27N 44°05' E 009°53'0 0.0
2017-Sep-16 00:57N 44°05' E 009°53'0 0.0
2017-Sep-16 00:27N 44°05' E 009°53'0 0.0
2017-Sep-15 23:57N 44°05' E 009°53'0 0.0
2017-Sep-15 23:27N 44°05' E 009°53'0 0.0
2017-Sep-15 22:57N 44°05' E 009°53'0 0.0
2017-Sep-15 22:27N 44°05' E 009°53'0 0.0
2017-Sep-15 21:57N 44°05' E 009°53'0 0.0
2017-Sep-15 21:27N 44°05' E 009°53'0 0.0
2017-Sep-15 20:57N 44°05' E 009°53'0 0.0
2017-Sep-15 20:27N 44°05' E 009°53'0 0.0
2017-Sep-15 19:57N 44°05' E 009°53'0 0.0
2017-Sep-15 19:27N 44°05' E 009°53'0 0.0
2017-Sep-15 18:57N 44°05' E 009°53'0 0.0
2017-Sep-15 18:27N 44°05' E 009°53'0 0.0
2017-Sep-15 17:57N 44°05' E 009°53'0 0.0
2017-Sep-15 17:27N 44°05' E 009°53'0 0.0
2017-Sep-15 16:57N 44°05' E 009°53'0 0.0
2017-Sep-15 16:27N 44°05' E 009°53'0 0.0
2017-Sep-15 15:57N 44°05' E 009°53'0 0.0
2017-Sep-15 15:27N 44°05' E 009°53'0 0.0
2017-Sep-15 14:57N 44°05' E 009°53'0 0.0
2017-Sep-15 14:27N 44°05' E 009°53'0 0.0
2017-Sep-15 13:57N 44°05' E 009°53'0 0.0
2017-Sep-15 13:27N 44°05' E 009°53'0 0.0
2017-Sep-15 12:57N 44°05' E 009°53'0 0.0
2017-Sep-15 12:27N 44°05' E 009°53'0 0.0
2017-Sep-15 11:57N 44°05' E 009°53'0 0.0
2017-Sep-15 11:27N 44°05' E 009°53'0 0.0
2017-Sep-15 10:57N 44°05' E 009°53'0 0.0
2017-Sep-15 10:27N 44°05' E 009°53'0 0.0
2017-Sep-15 09:57N 44°05' E 009°53'0 0.0
2017-Sep-15 09:21N 44°05' E 009°53'0 0.0
2017-Sep-15 08:57N 44°05' E 009°53'0 0.0
2017-Sep-15 08:27N 44°05' E 009°53'0 0.0
2017-Sep-15 07:57N 44°05' E 009°53'0 0.0
2017-Sep-15 07:27N 44°05' E 009°53'0 0.0
2017-Sep-15 06:57N 44°05' E 009°53'0 0.0
2017-Sep-15 06:27N 44°05' E 009°53'0 0.0
2017-Sep-15 05:57N 44°05' E 009°53'0 0.0
2017-Sep-15 05:27N 44°05' E 009°53'0 0.0
2017-Sep-15 04:57N 44°05' E 009°53'0 0.0
2017-Sep-15 04:27N 44°05' E 009°53'0 0.0
2017-Sep-15 03:57N 44°05' E 009°53'0 0.0
2017-Sep-15 03:27N 44°05' E 009°53'0 0.0
2017-Sep-15 02:57N 44°05' E 009°53'0 0.0
2017-Sep-15 02:27N 44°05' E 009°53'0 0.0
2017-Sep-15 01:57N 44°05' E 009°53'0 0.0
2017-Sep-15 01:27N 44°05' E 009°53'0 0.0
2017-Sep-15 00:57N 44°05' E 009°53'0 0.0
2017-Sep-15 00:27N 44°05' E 009°53'0 0.0
2017-Sep-14 23:57N 44°05' E 009°53'0 0.0
2017-Sep-14 23:27N 44°05' E 009°53'0 0.0
2017-Sep-14 22:57N 44°05' E 009°53'0 0.0
2017-Sep-14 22:27N 44°05' E 009°53'0 0.0
2017-Sep-14 21:57N 44°05' E 009°53'0 0.0
2017-Sep-14 21:27N 44°05' E 009°53'0 0.0
2017-Sep-14 20:57N 44°05' E 009°53'0 0.0
2017-Sep-14 20:27N 44°05' E 009°53'0 0.0
2017-Sep-14 19:57N 44°05' E 009°53'0 0.0
2017-Sep-14 19:27N 44°05' E 009°53'0 0.0
2017-Sep-14 18:57N 44°05' E 009°53'0 0.0
2017-Sep-14 18:27N 44°05' E 009°53'0 0.0
2017-Sep-14 17:57N 44°05' E 009°53'0 0.0
2017-Sep-14 17:21N 44°05' E 009°53'0 0.0
2017-Sep-14 16:57N 44°05' E 009°53'0 0.0
2017-Sep-14 16:27N 44°05' E 009°53'0 0.0
2017-Sep-14 15:57N 44°05' E 009°53'0 0.0
2017-Sep-14 15:27N 44°05' E 009°53'0 0.0
2017-Sep-14 14:57N 44°05' E 009°53'0 0.0
2017-Sep-14 14:27N 44°05' E 009°53'0 0.0
2017-Sep-14 13:57N 44°05' E 009°53'0 0.0
2017-Sep-14 13:27N 44°05' E 009°53'0 0.0
2017-Sep-14 12:57N 44°05' E 009°53'0 0.0
2017-Sep-14 12:27N 44°05' E 009°53'0 0.0
2017-Sep-14 11:57N 44°05' E 009°53'0 0.0
2017-Sep-14 11:27N 44°05' E 009°53'0 0.0
2017-Sep-14 10:51N 44°05' E 009°53'0 0.0
2017-Sep-14 10:27N 44°05' E 009°53'0 0.0
2017-Sep-14 09:57N 44°05' E 009°53'0 0.0
2017-Sep-14 09:27N 44°05' E 009°53'0 0.0
2017-Sep-14 08:57N 44°05' E 009°53'0 0.0
2017-Sep-14 08:27N 44°05' E 009°53'0 0.0
2017-Sep-14 07:57N 44°05' E 009°53'0 0.0
2017-Sep-14 07:27N 44°05' E 009°53'0 0.0
2017-Sep-14 06:57N 44°05' E 009°53'0 0.0
2017-Sep-14 06:27N 44°05' E 009°53'0 0.0
2017-Sep-14 05:57N 44°05' E 009°53'0 0.0
2017-Sep-14 05:27N 44°05' E 009°53'0 0.0
2017-Sep-14 04:57N 44°05' E 009°53'0 0.0
2017-Sep-14 04:21N 44°05' E 009°53'0 0.0
2017-Sep-14 03:57N 44°05' E 009°53'0 0.0
2017-Sep-14 03:21N 44°05' E 009°53'0 0.0
2017-Sep-14 02:57N 44°05' E 009°53'0 0.0
2017-Sep-14 02:27N 44°05' E 009°53'0 0.0
2017-Sep-14 01:57N 44°05' E 009°53'0 0.0
2017-Sep-14 01:27N 44°05' E 009°53'0 0.0
2017-Sep-14 00:57N 44°05' E 009°53'0 0.0
2017-Sep-14 00:27N 44°05' E 009°53'0 0.0
2017-Sep-13 23:57N 44°05' E 009°53'0 0.0
2017-Sep-13 23:27N 44°05' E 009°53'0 0.0
2017-Sep-13 22:57N 44°05' E 009°53'0 0.0
2017-Sep-13 22:27N 44°05' E 009°53'0 0.0
2017-Sep-13 21:57N 44°05' E 009°53'0 0.0
2017-Sep-13 21:27N 44°05' E 009°53'0 0.0
2017-Sep-13 20:57N 44°05' E 009°53'0 0.0
2017-Sep-13 20:27N 44°05' E 009°53'0 0.0
2017-Sep-13 19:57N 44°05' E 009°53'0 0.0
2017-Sep-13 19:27N 44°05' E 009°53'0 0.0
2017-Sep-13 18:51N 44°05' E 009°53'0 0.0
2017-Sep-13 18:27N 44°05' E 009°53'0 0.0
2017-Sep-13 17:57N 44°05' E 009°53'0 0.0
2017-Sep-13 17:27N 44°05' E 009°53'0 0.0
2017-Sep-13 16:57N 44°05' E 009°53'0 0.0
2017-Sep-13 16:21N 44°05' E 009°53'0 0.0
2017-Sep-13 15:57N 44°05' E 009°53'0 0.0
2017-Sep-13 15:27N 44°05' E 009°53'0 0.0
2017-Sep-13 14:57N 44°05' E 009°53'0 0.0
2017-Sep-13 14:27N 44°05' E 009°53'0 0.0
2017-Sep-13 13:57N 44°05' E 009°53'0 0.0
2017-Sep-13 13:27N 44°05' E 009°53'0 0.0
2017-Sep-13 12:57N 44°05' E 009°53'0 0.0
2017-Sep-13 12:27N 44°05' E 009°53'0 0.0
2017-Sep-13 11:57N 44°05' E 009°53'0 0.0
2017-Sep-13 11:27N 44°05' E 009°53'0 0.0
2017-Sep-13 10:51N 44°05' E 009°53'0 0.0
2017-Sep-13 10:27N 44°05' E 009°53'0 0.0
2017-Sep-13 09:57N 44°05' E 009°53'0 0.0
2017-Sep-13 09:27N 44°05' E 009°53'0 0.0
2017-Sep-13 08:57N 44°05' E 009°53'0 0.0
2017-Sep-13 08:27N 44°05' E 009°53'0 0.0
2017-Sep-13 07:51N 44°05' E 009°53'0 0.0
2017-Sep-13 07:27N 44°05' E 009°53'0 0.0
2017-Sep-13 06:57N 44°05' E 009°53'0 0.0
2017-Sep-13 06:27N 44°05' E 009°53'0 0.0
2017-Sep-13 05:57N 44°05' E 009°53'0 0.0
2017-Sep-13 05:27N 44°05' E 009°53'0 0.0
2017-Sep-13 04:57N 44°05' E 009°53'0 0.0
2017-Sep-13 04:21N 44°05' E 009°53'0 0.0
2017-Sep-13 03:57N 44°05' E 009°53'0 0.0
2017-Sep-13 03:27N 44°05' E 009°53'0 0.0
2017-Sep-13 02:57N 44°05' E 009°53'0 0.0
2017-Sep-13 02:27N 44°05' E 009°53'0 0.0
2017-Sep-13 01:57N 44°05' E 009°53'0 0.0
2017-Sep-13 01:27N 44°05' E 009°53'0 0.0
2017-Sep-13 00:57N 44°05' E 009°53'0 0.0
2017-Sep-13 00:27N 44°05' E 009°53'0 0.0
2017-Sep-12 23:57N 44°05' E 009°53'0 0.0
2017-Sep-12 23:27N 44°05' E 009°53'0 0.0
2017-Sep-12 22:57N 44°05' E 009°53'0 0.0
2017-Sep-12 22:27N 44°05' E 009°53'0 0.0
2017-Sep-12 21:57N 44°05' E 009°53'0 0.0
2017-Sep-12 21:27N 44°05' E 009°53'0 0.0
2017-Sep-12 20:57N 44°05' E 009°53'0 0.0
2017-Sep-12 20:27N 44°05' E 009°53'0 0.0
2017-Sep-12 19:57N 44°05' E 009°53'0 0.0
2017-Sep-12 19:27N 44°05' E 009°53'0 0.0
2017-Sep-12 18:57N 44°05' E 009°53'0 0.0
2017-Sep-12 18:27N 44°05' E 009°53'0 0.0
2017-Sep-12 17:57N 44°05' E 009°53'0 0.0
2017-Sep-12 17:27N 44°05' E 009°53'0 0.0
2017-Sep-12 16:57N 44°05' E 009°53'0 0.0
2017-Sep-12 16:27N 44°05' E 009°53'0 0.0
2017-Sep-12 15:57N 44°05' E 009°53'0 0.0
2017-Sep-12 15:27N 44°05' E 009°53'0 0.0
2017-Sep-12 14:57N 44°05' E 009°53'0 0.0
2017-Sep-12 14:27N 44°05' E 009°53'0 0.0
2017-Sep-12 13:57N 44°05' E 009°53'0 0.0
2017-Sep-12 13:27N 44°05' E 009°53'0 0.0
2017-Sep-12 12:57N 44°05' E 009°53'0 0.0
2017-Sep-12 12:27N 44°05' E 009°53'0 0.0
2017-Sep-12 11:57N 44°05' E 009°53'0 0.0
2017-Sep-12 11:27N 44°05' E 009°53'0 0.0
2017-Sep-12 10:57N 44°05' E 009°53'0 0.0
2017-Sep-12 10:27N 44°05' E 009°53'0 0.0
2017-Sep-12 09:57N 44°05' E 009°53'0 0.0
2017-Sep-12 09:27N 44°05' E 009°53'0 0.0
2017-Sep-12 08:57N 44°05' E 009°53'0 0.0
2017-Sep-12 08:27N 44°05' E 009°53'0 0.0
2017-Sep-12 07:57N 44°05' E 009°53'0 0.0
2017-Sep-12 07:27N 44°05' E 009°53'0 0.0
2017-Sep-12 06:57N 44°05' E 009°53'0 0.0
2017-Sep-12 06:27N 44°05' E 009°53'0 0.0
2017-Sep-12 05:57N 44°05' E 009°53'0 0.0
2017-Sep-12 05:27N 44°05' E 009°53'0 0.0
2017-Sep-12 04:45N 44°05' E 009°53'0 0.0
2017-Sep-12 04:27N 44°05' E 009°53'0 0.0
2017-Sep-12 03:57N 44°05' E 009°53'0 0.0
2017-Sep-12 03:27N 44°05' E 009°53'0 0.0
2017-Sep-12 02:57N 44°05' E 009°53'0 0.0
2017-Sep-12 02:27N 44°05' E 009°53'  
Track history (hours):
 
Tides and Currents Weather Stations Pressure Air Temp Water Temp Dewpoint Dewpoint Depression Visibility Wind Speed Wind Dir Waves Ship Positions

Jsp Bora

Last reported at 2017-Sep-22 01:58 UTC. Time now 2017-Sep-22 02:56 UTC.
Position N 39°25' W 009°50'.

Length 148 m; draft 6.6 m.

Type: Cargo ship. MMSI: 305079000.

Date/timePositionNaut miles runAvg speedWind from/ knotsBaromVisibWave heightAir tempDewpointWater temp
2017-Sep-22 01:58N 39°25' W 009°50'5 8.6
2017-Sep-22 01:26N 39°20' W 009°50'4 9.0
2017-Sep-22 01:00N 39°17' W 009°50'5 9.3
2017-Sep-22 00:31N 39°12' W 009°51'5 9.1
2017-Sep-22 00:00N 39°07' W 009°51'5 9.3
2017-Sep-21 23:31N 39°03' W 009°51'5 9.8
2017-Sep-21 23:00N 38°58' W 009°51'5 9.4
2017-Sep-21 22:30N 38°53' W 009°51'5 9.2
2017-Sep-21 22:00N 38°49' W 009°51'5 9.2
2017-Sep-21 21:31N 38°44' W 009°51'4 8.9
2017-Sep-21 21:01N 38°40' W 009°50'4 8.4
2017-Sep-21 20:30N 38°35' W 009°49'4 8.8
2017-Sep-21 20:01N 38°31' W 009°47'5 9.4
2017-Sep-21 19:30N 38°27' W 009°46'5 9.4
2017-Sep-21 19:01N 38°22' W 009°45'611.7
2017-Sep-21 18:30N 38°16' W 009°43'611.5
2017-Sep-21 18:01N 38°11' W 009°41'811.2
2017-Sep-21 17:18N 38°03' W 009°39'311.4
2017-Sep-21 17:00N 37°60' W 009°38'611.1
2017-Sep-21 16:30N 37°54' W 009°36'611.8
2017-Sep-21 16:00N 37°49' W 009°35'611.8
2017-Sep-21 15:30N 37°43' W 009°33'612.2
2017-Sep-21 15:00N 37°37' W 009°31'612.6
2017-Sep-21 14:30N 37°31' W 009°29'1412.5
2017-Sep-21 13:21N 37°17' W 009°25'712.6
2017-Sep-21 12:46N 37°09' W 009°23'312.5
2017-Sep-21 12:30N 37°06' W 009°22'812.6
2017-Sep-21 11:55N 36°59' W 009°20'512.6
2017-Sep-21 11:30N 36°54' W 009°18'1412.4
2017-Sep-21 10:24N 36°44' W 009°07'512.7
2017-Sep-21 09:59N 36°42' W 009°01'612.5
2017-Sep-21 09:30N 36°40' W 008°54'612.2
2017-Sep-21 09:00N 36°38' W 008°47'613.1
2017-Sep-21 08:30N 36°36' W 008°39'713.2
2017-Sep-21 08:00N 36°34' W 008°31'713.2
2017-Sep-21 07:30N 36°32' W 008°23'713.4
2017-Sep-21 07:00N 36°30' W 008°15'713.4
2017-Sep-21 06:29N 36°28' W 008°07'510.6
2017-Sep-21 06:00N 36°26' W 008°01'510.7
2017-Sep-21 05:30N 36°25' W 007°55'510.7
2017-Sep-21 05:00N 36°23' W 007°49'510.8
2017-Sep-21 04:30N 36°21' W 007°42'610.8
2017-Sep-21 03:59N 36°20' W 007°36'7111.0
2017-Sep-20 21:31N 35°58' W 006°12'012.0
2017-Sep-20 21:30N 35°58' W 006°12'2010.9
2017-Sep-20 19:41N 35°58' W 005°47'5 9.4
2017-Sep-20 19:09N 35°58' W 005°41'2 8.6
2017-Sep-20 18:58N 35°58' W 005°39'4 7.8
2017-Sep-20 18:28N 35°59' W 005°34'4 7.9
2017-Sep-20 18:01N 35°60' W 005°30'4 7.8
2017-Sep-20 17:30N 36°01' W 005°25'5 9.4
2017-Sep-20 17:01N 36°05' W 005°23'3 2.3
2017-Sep-20 15:43N 36°08' W 005°25'0 0.0
2017-Sep-20 15:22N 36°08' W 005°25'0 0.0
2017-Sep-20 13:56N 36°08' W 005°25'0 0.0
2017-Sep-20 13:19N 36°08' W 005°25'0 0.0
2017-Sep-20 05:35N 36°08' W 005°25'0 0.0
2017-Sep-20 05:29N 36°08' W 005°25'0 0.0
2017-Sep-20 04:56N 36°08' W 005°25'0 0.0
2017-Sep-20 04:29N 36°08' W 005°25'0 0.0
2017-Sep-20 03:56N 36°08' W 005°25'0 0.2
2017-Sep-20 03:29N 36°08' W 005°25'0 0.0
2017-Sep-20 02:59N 36°08' W 005°25'0 0.0
2017-Sep-20 02:29N 36°08' W 005°25'0 0.2
2017-Sep-20 01:59N 36°08' W 005°25'0 0.2
2017-Sep-20 01:26N 36°08' W 005°25'0 0.0
2017-Sep-20 00:59N 36°08' W 005°25'0 0.1
2017-Sep-20 00:29N 36°08' W 005°25'0 0.1
2017-Sep-19 23:59N 36°08' W 005°25'0 0.0
2017-Sep-19 23:29N 36°08' W 005°25'0 0.0
2017-Sep-19 22:56N 36°08' W 005°25'0 0.0
2017-Sep-19 22:29N 36°08' W 005°25'0 0.2
2017-Sep-19 21:56N 36°08' W 005°25'0 0.1
2017-Sep-19 19:59N 36°08' W 005°25'0 0.0
2017-Sep-19 19:11N 36°08' W 005°25'0 0.1
2017-Sep-19 18:59N 36°08' W 005°25'0 0.2
2017-Sep-19 18:29N 36°08' W 005°25'0 0.0
2017-Sep-19 17:59N 36°08' W 005°25'0 0.1
2017-Sep-19 17:30N 36°08' W 005°25'2 4.4
2017-Sep-19 17:00N 36°06' W 005°23'4 8.4
2017-Sep-19 16:30N 36°05' W 005°18'612.0
2017-Sep-19 16:00N 36°05' W 005°11'23113.0
2017-Sep-18 22:12N 37°07' W 000°33'415.0
2017-Sep-18 21:56N 37°09' W 000°28'615.0
2017-Sep-18 21:30N 37°12' W 000°21'715.0
2017-Sep-18 21:00N 37°15' W 000°13'714.8
2017-Sep-18 20:30N 37°19' W 000°05'714.6
2017-Sep-18 20:00N 37°22' E 000°03'714.6
2017-Sep-18 19:30N 37°26' E 000°11'714.6
2017-Sep-18 19:00N 37°29' E 000°20'714.4
2017-Sep-18 18:30N 37°32' E 000°28'714.2
2017-Sep-18 18:00N 37°36' E 000°36'814.2
2017-Sep-18 17:26N 37°40' E 000°45'614.3
2017-Sep-18 17:00N 37°43' E 000°52'714.5
2017-Sep-18 16:30N 37°46' E 000°60'914.8
2017-Sep-18 15:55N 37°50' E 001°09'8014.7
2017-Sep-18 10:29N 38°27' E 002°39'2114.6
2017-Sep-18 09:01N 38°37' E 003°03'414.6
2017-Sep-18 08:46N 38°38' E 003°07'514.7
2017-Sep-18 08:26N 38°41' E 003°13'614.7
2017-Sep-18 08:00N 38°44' E 003°20'714.6
2017-Sep-18 07:30N 38°47' E 003°29'714.6
2017-Sep-18 06:59N 38°51' E 003°37'35214.6
2017-Sep-17 06:58N 43°10' E 008°51'613.0
2017-Sep-17 06:30N 43°15' E 008°57'713.2
2017-Sep-17 06:00N 43°20' E 009°03'713.3
2017-Sep-17 05:30N 43°25' E 009°09'713.4
2017-Sep-17 05:00N 43°30' E 009°15'713.6
2017-Sep-17 04:30N 43°35' E 009°21'713.9
2017-Sep-17 04:00N 43°40' E 009°27'714.0
2017-Sep-17 03:30N 43°46' E 009°34'714.1
2017-Sep-17 03:00N 43°51' E 009°40'714.4
2017-Sep-17 02:30N 43°56' E 009°47'612.9
2017-Sep-17 02:01N 44°01' E 009°52'4 7.1
2017-Sep-17 01:30N 44°05' E 009°52'0 0.8
2017-Sep-17 01:00N 44°05' E 009°53'0 0.0
2017-Sep-17 00:27N 44°05' E 009°53'0 0.0
2017-Sep-16 23:57N 44°05' E 009°53'0 0.0
2017-Sep-16 23:27N 44°05' E 009°53'0 0.0
2017-Sep-16 22:57N 44°05' E 009°53'0 0.0
2017-Sep-16 22:27N 44°05' E 009°53'0 0.0
2017-Sep-16 21:57N 44°05' E 009°53'0 0.0
2017-Sep-16 21:27N 44°05' E 009°53'0 0.0
2017-Sep-16 20:57N 44°05' E 009°53'0 0.0
2017-Sep-16 20:27N 44°05' E 009°53'0 0.0
2017-Sep-16 19:57N 44°05' E 009°53'0 0.0
2017-Sep-16 19:27N 44°05' E 009°53'0 0.0
2017-Sep-16 18:57N 44°05' E 009°53'0 0.0
2017-Sep-16 18:27N 44°05' E 009°53'0 0.0
2017-Sep-16 17:57N 44°05' E 009°53'0 0.0
2017-Sep-16 17:27N 44°05' E 009°53'0 0.0
2017-Sep-16 16:57N 44°05' E 009°53'0 0.0
2017-Sep-16 16:27N 44°05' E 009°53'0 0.0
2017-Sep-16 15:57N 44°05' E 009°53'0 0.0
2017-Sep-16 15:27N 44°05' E 009°53'0 0.0
2017-Sep-16 14:57N 44°05' E 009°53'0 0.0
2017-Sep-16 14:27N 44°05' E 009°53'0 0.0
2017-Sep-16 13:57N 44°05' E 009°53'0 0.0
2017-Sep-16 13:27N 44°05' E 009°53'0 0.0
2017-Sep-16 12:57N 44°05' E 009°53'0 0.0
2017-Sep-16 12:27N 44°05' E 009°53'0 0.0
2017-Sep-16 11:57N 44°05' E 009°53'0 0.0
2017-Sep-16 11:27N 44°05' E 009°53'0 0.0
2017-Sep-16 10:57N 44°05' E 009°53'0 0.0
2017-Sep-16 10:27N 44°05' E 009°53'0 0.0
2017-Sep-16 09:57N 44°05' E 009°53'0 0.0
2017-Sep-16 09:27N 44°05' E 009°53'0 0.0
2017-Sep-16 08:57N 44°05' E 009°53'0 0.0
2017-Sep-16 08:27N 44°05' E 009°53'0 0.0
2017-Sep-16 07:57N 44°05' E 009°53'0 0.0
2017-Sep-16 07:27N 44°05' E 009°53'0 0.0
2017-Sep-16 06:57N 44°05' E 009°53'0 0.0
2017-Sep-16 06:27N 44°05' E 009°53'0 0.0
2017-Sep-16 05:57N 44°05' E 009°53'0 0.0
2017-Sep-16 05:27N 44°05' E 009°53'0 0.0
2017-Sep-16 04:57N 44°05' E 009°53'0 0.0
2017-Sep-16 04:27N 44°05' E 009°53'0 0.0
2017-Sep-16 03:51N 44°05' E 009°53'0 0.0
2017-Sep-16 03:27N 44°05' E 009°53'0 0.0
2017-Sep-16 02:57N 44°05' E 009°53'0 0.0
2017-Sep-16 02:27N 44°05' E 009°53'0 0.0
2017-Sep-16 01:57N 44°05' E 009°53'0 0.0
2017-Sep-16 01:27N 44°05' E 009°53'0 0.0
2017-Sep-16 00:57N 44°05' E 009°53'0 0.0
2017-Sep-16 00:27N 44°05' E 009°53'0 0.0
2017-Sep-15 23:57N 44°05' E 009°53'0 0.0
2017-Sep-15 23:27N 44°05' E 009°53'0 0.0
2017-Sep-15 22:57N 44°05' E 009°53'0 0.0
2017-Sep-15 22:27N 44°05' E 009°53'0 0.0
2017-Sep-15 21:57N 44°05' E 009°53'0 0.0
2017-Sep-15 21:27N 44°05' E 009°53'0 0.0
2017-Sep-15 20:57N 44°05' E 009°53'0 0.0
2017-Sep-15 20:27N 44°05' E 009°53'0 0.0
2017-Sep-15 19:57N 44°05' E 009°53'0 0.0
2017-Sep-15 19:27N 44°05' E 009°53'0 0.0
2017-Sep-15 18:57N 44°05' E 009°53'0 0.0
2017-Sep-15 18:27N 44°05' E 009°53'0 0.0
2017-Sep-15 17:57N 44°05' E 009°53'0 0.0
2017-Sep-15 17:27N 44°05' E 009°53'0 0.0
2017-Sep-15 16:57N 44°05' E 009°53'0 0.0
2017-Sep-15 16:27N 44°05' E 009°53'0 0.0
2017-Sep-15 15:57N 44°05' E 009°53'0 0.0
2017-Sep-15 15:27N 44°05' E 009°53'0 0.0
2017-Sep-15 14:57N 44°05' E 009°53'0 0.0
2017-Sep-15 14:27N 44°05' E 009°53'0 0.0
2017-Sep-15 13:57N 44°05' E 009°53'0 0.0
2017-Sep-15 13:27N 44°05' E 009°53'0 0.0
2017-Sep-15 12:57N 44°05' E 009°53'0 0.0
2017-Sep-15 12:27N 44°05' E 009°53'0 0.0
2017-Sep-15 11:57N 44°05' E 009°53'0 0.0
2017-Sep-15 11:27N 44°05' E 009°53'0 0.0
2017-Sep-15 10:57N 44°05' E 009°53'0 0.0
2017-Sep-15 10:27N 44°05' E 009°53'0 0.0
2017-Sep-15 09:57N 44°05' E 009°53'0 0.0
2017-Sep-15 09:21N 44°05' E 009°53'0 0.0
2017-Sep-15 08:57N 44°05' E 009°53'0 0.0
2017-Sep-15 08:27N 44°05' E 009°53'0 0.0
2017-Sep-15 07:57N 44°05' E 009°53'0 0.0
2017-Sep-15 07:27N 44°05' E 009°53'0 0.0
2017-Sep-15 06:57N 44°05' E 009°53'0 0.0
2017-Sep-15 06:27N 44°05' E 009°53'0 0.0
2017-Sep-15 05:57N 44°05' E 009°53'0 0.0
2017-Sep-15 05:27N 44°05' E 009°53'0 0.0
2017-Sep-15 04:57N 44°05' E 009°53'0 0.0
2017-Sep-15 04:27N 44°05' E 009°53'0 0.0
2017-Sep-15 03:57N 44°05' E 009°53'0 0.0
2017-Sep-15 03:27N 44°05' E 009°53'0 0.0
2017-Sep-15 02:57N 44°05' E 009°53'0 0.0
2017-Sep-15 02:27N 44°05' E 009°53'0 0.0
2017-Sep-15 01:57N 44°05' E 009°53'0 0.0
2017-Sep-15 01:27N 44°05' E 009°53'0 0.0
2017-Sep-15 00:57N 44°05' E 009°53'0 0.0
2017-Sep-15 00:27N 44°05' E 009°53'0 0.0
2017-Sep-14 23:57N 44°05' E 009°53'0 0.0
2017-Sep-14 23:27N 44°05' E 009°53'0 0.0
2017-Sep-14 22:57N 44°05' E 009°53'0 0.0
2017-Sep-14 22:27N 44°05' E 009°53'0 0.0
2017-Sep-14 21:57N 44°05' E 009°53'0 0.0
2017-Sep-14 21:27N 44°05' E 009°53'0 0.0
2017-Sep-14 20:57N 44°05' E 009°53'0 0.0
2017-Sep-14 20:27N 44°05' E 009°53'0 0.0
2017-Sep-14 19:57N 44°05' E 009°53'0 0.0
2017-Sep-14 19:27N 44°05' E 009°53'0 0.0
2017-Sep-14 18:57N 44°05' E 009°53'0 0.0
2017-Sep-14 18:27N 44°05' E 009°53'0 0.0
2017-Sep-14 17:57N 44°05' E 009°53'0 0.0
2017-Sep-14 17:21N 44°05' E 009°53'0 0.0
2017-Sep-14 16:57N 44°05' E 009°53'0 0.0
2017-Sep-14 16:27N 44°05' E 009°53'0 0.0
2017-Sep-14 15:57N 44°05' E 009°53'0 0.0
2017-Sep-14 15:27N 44°05' E 009°53'0 0.0
2017-Sep-14 14:57N 44°05' E 009°53'0 0.0
2017-Sep-14 14:27N 44°05' E 009°53'0 0.0
2017-Sep-14 13:57N 44°05' E 009°53'0 0.0
2017-Sep-14 13:27N 44°05' E 009°53'0 0.0
2017-Sep-14 12:57N 44°05' E 009°53'0 0.0
2017-Sep-14 12:27N 44°05' E 009°53'0 0.0
2017-Sep-14 11:57N 44°05' E 009°53'0 0.0
2017-Sep-14 11:27N 44°05' E 009°53'0 0.0
2017-Sep-14 10:51N 44°05' E 009°53'0 0.0
2017-Sep-14 10:27N 44°05' E 009°53'0 0.0
2017-Sep-14 09:57N 44°05' E 009°53'0 0.0
2017-Sep-14 09:27N 44°05' E 009°53'0 0.0
2017-Sep-14 08:57N 44°05' E 009°53'0 0.0
2017-Sep-14 08:27N 44°05' E 009°53'0 0.0
2017-Sep-14 07:57N 44°05' E 009°53'0 0.0
2017-Sep-14 07:27N 44°05' E 009°53'0 0.0
2017-Sep-14 06:57N 44°05' E 009°53'0 0.0
2017-Sep-14 06:27N 44°05' E 009°53'0 0.0
2017-Sep-14 05:57N 44°05' E 009°53'0 0.0
2017-Sep-14 05:27N 44°05' E 009°53'0 0.0
2017-Sep-14 04:57N 44°05' E 009°53'0 0.0
2017-Sep-14 04:21N 44°05' E 009°53'0 0.0
2017-Sep-14 03:57N 44°05' E 009°53'0 0.0
2017-Sep-14 03:21N 44°05' E 009°53'0 0.0
2017-Sep-14 02:57N 44°05' E 009°53'0 0.0
2017-Sep-14 02:27N 44°05' E 009°53'0 0.0
2017-Sep-14 01:57N 44°05' E 009°53'0 0.0
2017-Sep-14 01:27N 44°05' E 009°53'0 0.0
2017-Sep-14 00:57N 44°05' E 009°53'0 0.0
2017-Sep-14 00:27N 44°05' E 009°53'0 0.0
2017-Sep-13 23:57N 44°05' E 009°53'0 0.0
2017-Sep-13 23:27N 44°05' E 009°53'0 0.0
2017-Sep-13 22:57N 44°05' E 009°53'0 0.0
2017-Sep-13 22:27N 44°05' E 009°53'0 0.0
2017-Sep-13 21:57N 44°05' E 009°53'0 0.0
2017-Sep-13 21:27N 44°05' E 009°53'0 0.0
2017-Sep-13 20:57N 44°05' E 009°53'0 0.0
2017-Sep-13 20:27N 44°05' E 009°53'0 0.0
2017-Sep-13 19:57N 44°05' E 009°53'0 0.0
2017-Sep-13 19:27N 44°05' E 009°53'0 0.0
2017-Sep-13 18:51N 44°05' E 009°53'0 0.0
2017-Sep-13 18:27N 44°05' E 009°53'0 0.0
2017-Sep-13 17:57N 44°05' E 009°53'0 0.0
2017-Sep-13 17:27N 44°05' E 009°53'0 0.0
2017-Sep-13 16:57N 44°05' E 009°53'0 0.0
2017-Sep-13 16:21N 44°05' E 009°53'0 0.0
2017-Sep-13 15:57N 44°05' E 009°53'0 0.0
2017-Sep-13 15:27N 44°05' E 009°53'0 0.0
2017-Sep-13 14:57N 44°05' E 009°53'0 0.0
2017-Sep-13 14:27N 44°05' E 009°53'0 0.0
2017-Sep-13 13:57N 44°05' E 009°53'0 0.0
2017-Sep-13 13:27N 44°05' E 009°53'0 0.0
2017-Sep-13 12:57N 44°05' E 009°53'0 0.0
2017-Sep-13 12:27N 44°05' E 009°53'0 0.0
2017-Sep-13 11:57N 44°05' E 009°53'0 0.0
2017-Sep-13 11:27N 44°05' E 009°53'0 0.0
2017-Sep-13 10:51N 44°05' E 009°53'0 0.0
2017-Sep-13 10:27N 44°05' E 009°53'0 0.0
2017-Sep-13 09:57N 44°05' E 009°53'0 0.0
2017-Sep-13 09:27N 44°05' E 009°53'0 0.0
2017-Sep-13 08:57N 44°05' E 009°53'0 0.0
2017-Sep-13 08:27N 44°05' E 009°53'0 0.0
2017-Sep-13 07:51N 44°05' E 009°53'0 0.0
2017-Sep-13 07:27N 44°05' E 009°53'0 0.0
2017-Sep-13 06:57N 44°05' E 009°53'0 0.0
2017-Sep-13 06:27N 44°05' E 009°53'0 0.0
2017-Sep-13 05:57N 44°05' E 009°53'0 0.0
2017-Sep-13 05:27N 44°05' E 009°53'0 0.0
2017-Sep-13 04:57N 44°05' E 009°53'0 0.0
2017-Sep-13 04:21N 44°05' E 009°53'0 0.0
2017-Sep-13 03:57N 44°05' E 009°53'0 0.0
2017-Sep-13 03:27N 44°05' E 009°53'0 0.0
2017-Sep-13 02:57N 44°05' E 009°53'0 0.0
2017-Sep-13 02:27N 44°05' E 009°53'0 0.0
2017-Sep-13 01:57N 44°05' E 009°53'0 0.0
2017-Sep-13 01:27N 44°05' E 009°53'0 0.0
2017-Sep-13 00:57N 44°05' E 009°53'0 0.0
2017-Sep-13 00:27N 44°05' E 009°53'0 0.0
2017-Sep-12 23:57N 44°05' E 009°53'0 0.0
2017-Sep-12 23:27N 44°05' E 009°53'0 0.0
2017-Sep-12 22:57N 44°05' E 009°53'0 0.0
2017-Sep-12 22:27N 44°05' E 009°53'0 0.0
2017-Sep-12 21:57N 44°05' E 009°53'0 0.0
2017-Sep-12 21:27N 44°05' E 009°53'0 0.0
2017-Sep-12 20:57N 44°05' E 009°53'0 0.0
2017-Sep-12 20:27N 44°05' E 009°53'0 0.0
2017-Sep-12 19:57N 44°05' E 009°53'0 0.0
2017-Sep-12 19:27N 44°05' E 009°53'0 0.0
2017-Sep-12 18:57N 44°05' E 009°53'0 0.0
2017-Sep-12 18:27N 44°05' E 009°53'0 0.0
2017-Sep-12 17:57N 44°05' E 009°53'0 0.0
2017-Sep-12 17:27N 44°05' E 009°53'0 0.0
2017-Sep-12 16:57N 44°05' E 009°53'0 0.0
2017-Sep-12 16:27N 44°05' E 009°53'0 0.0
2017-Sep-12 15:57N 44°05' E 009°53'0 0.0
2017-Sep-12 15:27N 44°05' E 009°53'0 0.0
2017-Sep-12 14:57N 44°05' E 009°53'0 0.0
2017-Sep-12 14:27N 44°05' E 009°53'0 0.0
2017-Sep-12 13:57N 44°05' E 009°53'0 0.0
2017-Sep-12 13:27N 44°05' E 009°53'0 0.0
2017-Sep-12 12:57N 44°05' E 009°53'0 0.0
2017-Sep-12 12:27N 44°05' E 009°53'0 0.0
2017-Sep-12 11:57N 44°05' E 009°53'0 0.0
2017-Sep-12 11:27N 44°05' E 009°53'0 0.0
2017-Sep-12 10:57N 44°05' E 009°53'0 0.0
2017-Sep-12 10:27N 44°05' E 009°53'0 0.0
2017-Sep-12 09:57N 44°05' E 009°53'0 0.0
2017-Sep-12 09:27N 44°05' E 009°53'0 0.0
2017-Sep-12 08:57N 44°05' E 009°53'0 0.0
2017-Sep-12 08:27N 44°05' E 009°53'0 0.0
2017-Sep-12 07:57N 44°05' E 009°53'0 0.0
2017-Sep-12 07:27N 44°05' E 009°53'0 0.0
2017-Sep-12 06:57N 44°05' E 009°53'0 0.0
2017-Sep-12 06:27N 44°05' E 009°53'0 0.0
2017-Sep-12 05:57N 44°05' E 009°53'0 0.0
2017-Sep-12 05:27N 44°05' E 009°53'0 0.0
2017-Sep-12 04:45N 44°05' E 009°53'0 0.0
2017-Sep-12 04:27N 44°05' E 009°53'0 0.0
2017-Sep-12 03:57N 44°05' E 009°53'0 0.0
2017-Sep-12 03:27N 44°05' E 009°53'0 0.0
2017-Sep-12 02:57N 44°05' E 009°53'0 0.0
2017-Sep-12 02:27N 44°05' E 009°53'  

Dump ship's entire track history